Time;durP1;ratioP1;P1;durP2;ratioP2;P2;SDS_P1;SDS_P2;PMS_P1;PMS_P2;Temp;Humidity;BMP_temperature;BMP_pressure;BME280_temperature;BME280_humidity;BME280_pressure;Samples;Min_cycle;Max_cycle;Signal;HPM_P1;HPM_P2
2022/06/18 00:00:48;;;;;;;2.70;2.20;;;;;;;;;;5007240;28;20119;-69
2022/06/18 00:03:14;;;;;;;7.60;2.90;;;;;;;;;;5007530;28;20557;-68
2022/06/18 00:05:42;;;;;;;5.53;2.60;;;;;;;;;;5008456;28;20129;-70
2022/06/18 00:08:14;;;;;;;4.53;2.58;;;;;;;;;;5008069;28;20036;-70
2022/06/18 00:10:39;;;;;;;6.28;2.80;;;;;;;;;;5005966;28;20088;-70
2022/06/18 00:13:41;;;;;;;5.15;2.33;;;;;;;;;;5005799;28;20049;-71
2022/06/18 00:16:19;;;;;;;5.75;2.15;;;;;;;;;;5003981;28;20546;-70
2022/06/18 00:18:45;;;;;;;4.00;2.10;;;;;;;;;;5008145;28;20037;-70
2022/06/18 00:21:21;;;;;;;3.42;1.83;;;;;;;;;;5006151;28;20040;-71
2022/06/18 00:23:47;;;;;;;3.47;2.28;;;;;;;;;;5008056;28;20093;-70
2022/06/18 00:26:12;;;;;;;3.03;2.00;;;;;;;;;;5008942;28;20568;-69
2022/06/18 00:28:38;;;;;;;3.45;2.00;;;;;;;;;;5008943;28;20037;-68
2022/06/18 00:31:03;;;;;;;3.08;2.00;;;;;;;;;;5005317;28;20069;-70
2022/06/18 00:33:29;;;;;;;3.22;1.80;;;;;;;;;;5009795;28;20045;-71
2022/06/18 00:36:00;;;;;;;4.78;2.47;;;;;;;;;;5006032;28;20066;-70
2022/06/18 00:38:31;;;;;;;5.30;2.83;;;;;;;;;;5006845;28;20452;-70
2022/06/18 00:40:58;;;;;;;4.68;3.00;;;;;;;;;;5006242;28;20026;-70
2022/06/18 00:43:29;;;;;;;4.20;2.42;;;;;;;;;;5006545;28;20030;-69
2022/06/18 00:45:59;;;;;;;7.68;2.65;;;;;;;;;;5006915;28;20389;-70
2022/06/18 00:48:32;;;;;;;2.90;2.42;;;;;;;;;;4989099;28;20112;-69
2022/06/18 00:51:09;;;;;;;5.05;2.33;;;;;;;;;;5004778;28;20022;-69
2022/06/18 00:53:48;;;;;;;3.92;2.03;;;;;;;;;;4989539;28;20041;-70
2022/06/18 00:56:46;;;;;;;3.33;2.58;;;;;;;;;;5006957;28;20630;-70
2022/06/18 00:59:34;;;;;;;5.35;2.83;;;;;;;;;;4991680;28;20087;-70
2022/06/18 01:02:01;;;;;;;5.55;2.80;;;;;;;;;;5005624;28;20366;-69
2022/06/18 01:04:31;;;;;;;4.25;2.28;;;;;;;;;;4990442;28;20123;-71
2022/06/18 01:07:06;;;;;;;5.60;2.20;;;;;;;;;;5003070;28;20038;-70
2022/06/18 01:09:34;;;;;;;3.97;2.47;;;;;;;;;;5003396;28;20037;-70
2022/06/18 01:12:00;;;;;;;6.95;2.58;;;;;;;;;;5002547;28;20034;-70
2022/06/18 01:14:27;;;;;;;4.18;2.33;;;;;;;;;;5008413;28;20441;-70
2022/06/18 01:16:56;;;;;;;4.55;2.25;;;;;;;;;;5005512;28;20117;-70
2022/06/18 01:19:40;;;;;;;4.00;2.78;;;;;;;;;;5008075;28;20034;-71
2022/06/18 01:22:42;;;;;;;5.10;2.40;;;;;;;;;;5004546;28;20052;-70
2022/06/18 01:25:08;;;;;;;4.25;2.60;;;;;;;;;;5002598;28;20038;-70
2022/06/18 01:27:35;;;;;;;3.83;2.33;;;;;;;;;;5004739;28;20049;-70
2022/06/18 01:30:07;;;;;;;3.78;2.25;;;;;;;;;;5007647;28;20034;-70
2022/06/18 01:32:33;;;;;;;5.07;1.90;;;;;;;;;;5004561;28;20498;-70
2022/06/18 01:35:00;;;;;;;3.08;2.08;;;;;;;;;;5005081;28;20038;-71
2022/06/18 01:37:26;;;;;;;4.85;2.20;;;;;;;;;;5004520;28;20545;-71
2022/06/18 01:39:52;;;;;;;5.78;2.17;;;;;;;;;;5008548;28;20040;-70
2022/06/18 01:42:32;;;;;;;4.03;2.00;;;;;;;;;;5006636;28;20031;-71
2022/06/18 01:45:02;;;;;;;4.47;1.70;;;;;;;;;;5003449;28;20045;-71
2022/06/18 01:47:37;;;;;;;3.22;1.80;;;;;;;;;;4989911;28;20462;-70
2022/06/18 01:50:34;;;;;;;4.05;1.80;;;;;;;;;;5007776;28;20374;-70
2022/06/18 01:53:05;;;;;;;5.32;1.70;;;;;;;;;;4994361;28;20055;-70
2022/06/18 01:55:38;;;;;;;3.95;1.50;;;;;;;;;;5006058;28;20037;-71
2022/06/18 01:58:05;;;;;;;;;;;;;;;;;;5003692;28;20038;-67
2022/06/18 02:00:31;;;;;;;2.47;1.58;;;;;;;;;;5003607;28;19913;-70
2022/06/18 02:02:59;;;;;;;3.50;1.40;;;;;;;;;;5006070;28;20112;-69
2022/06/18 02:05:25;;;;;;;2.25;1.63;;;;;;;;;;5004401;28;20042;-71
2022/06/18 02:07:51;;;;;;;3.72;1.60;;;;;;;;;;4988051;28;20061;-70
2022/06/18 02:10:21;;;;;;;2.38;1.50;;;;;;;;;;5000925;28;20030;-70
2022/06/18 02:12:48;;;;;;;4.43;1.80;;;;;;;;;;5003115;28;20077;-70
2022/06/18 02:15:22;;;;;;;4.68;1.85;;;;;;;;;;5007603;28;20026;-70
2022/06/18 02:17:47;;;;;;;3.85;1.90;;;;;;;;;;5004965;28;20524;-70
2022/06/18 02:20:22;;;;;;;4.10;1.92;;;;;;;;;;5000385;28;20026;-70
2022/06/18 02:22:50;;;;;;;4.72;1.92;;;;;;;;;;5004115;28;20104;-70
2022/06/18 02:25:18;;;;;;;4.97;2.30;;;;;;;;;;5004629;28;20025;-71
2022/06/18 02:27:44;;;;;;;5.65;2.67;;;;;;;;;;5006719;28;20413;-71
2022/06/18 02:30:23;;;;;;;6.47;2.42;;;;;;;;;;5002339;28;20041;-69
2022/06/18 02:33:10;;;;;;;7.93;2.97;;;;;;;;;;5003826;28;20070;-70
2022/06/18 02:35:36;;;;;;;5.57;2.85;;;;;;;;;;5004896;28;20038;-72
2022/06/18 02:38:13;;;;;;;8.50;3.00;;;;;;;;;;5002808;28;20497;-69
2022/06/18 02:40:38;;;;;;;7.18;3.28;;;;;;;;;;5006453;28;20168;-70
2022/06/18 02:43:04;;;;;;;9.98;3.75;;;;;;;;;;5002585;28;20121;-71
2022/06/18 02:45:31;;;;;;;6.97;3.33;;;;;;;;;;5004906;28;20038;-69
2022/06/18 02:47:59;;;;;;;7.22;3.45;;;;;;;;;;5006063;28;20273;-70
2022/06/18 02:50:29;;;;;;;8.20;3.05;;;;;;;;;;5000883;28;20030;-71
2022/06/18 02:53:00;;;;;;;7.25;3.72;;;;;;;;;;5004783;28;20034;-71
2022/06/18 02:55:33;;;;;;;6.20;3.00;;;;;;;;;;4983235;28;20045;-70
2022/06/18 02:58:18;;;;;;;;;;;;;;;;;;5002583;28;20033;-68
2022/06/18 03:00:51;;;;;;;6.05;2.83;;;;;;;;;;5000276;28;19921;-70
2022/06/18 03:03:17;;;;;;;;;;;;;;;;;;5000642;28;20057;-68
2022/06/18 03:05:43;;;;;;;4.57;2.97;;;;;;;;;;5003677;28;19917;-69
2022/06/18 03:08:09;;;;;;;5.70;2.65;;;;;;;;;;5002295;28;20025;-70
2022/06/18 03:13:19;;;;;;;6.07;2.20;;;;;;;;;;4999412;28;20397;-71
2022/06/18 03:15:47;;;;;;;6.32;2.33;;;;;;;;;;5004899;28;20046;-70
2022/06/18 03:18:14;;;;;;;3.63;2.10;;;;;;;;;;5004839;28;20045;-68
2022/06/18 03:20:49;;;;;;;4.65;2.40;;;;;;;;;;4986987;28;20056;-71
2022/06/18 03:23:17;;;;;;;9.45;2.58;;;;;;;;;;5008141;28;20229;-68
2022/06/18 03:25:43;;;;;;;2.45;1.90;;;;;;;;;;4988329;28;20725;-70
2022/06/18 03:28:11;;;;;;;3.08;1.98;;;;;;;;;;5004668;28;20036;-72
2022/06/18 03:30:39;;;;;;;4.68;2.08;;;;;;;;;;5003832;28;20026;-71
2022/06/18 03:33:05;;;;;;;5.07;2.20;;;;;;;;;;5007858;28;20465;-70
2022/06/18 03:35:30;;;;;;;5.25;2.35;;;;;;;;;;5007290;28;20042;-71
2022/06/18 03:37:56;;;;;;;4.47;2.05;;;;;;;;;;5006950;28;20026;-71
2022/06/18 03:40:21;;;;;;;3.75;2.10;;;;;;;;;;5004302;28;20041;-71
2022/06/18 03:42:47;;;;;;;3.95;2.10;;;;;;;;;;4991600;28;20042;-70
2022/06/18 03:45:12;;;;;;;5.63;2.05;;;;;;;;;;4990585;28;20502;-70
2022/06/18 03:47:38;;;;;;;4.82;1.92;;;;;;;;;;4987912;28;20054;-70
2022/06/18 03:50:04;;;;;;;3.20;2.08;;;;;;;;;;4989865;28;20482;-69
2022/06/18 03:52:30;;;;;;;2.33;1.83;;;;;;;;;;4992330;28;20037;-71
2022/06/18 03:54:55;;;;;;;4.63;2.45;;;;;;;;;;4986734;28;20039;-71
2022/06/18 03:57:21;;;;;;;4.15;2.22;;;;;;;;;;4990874;28;20030;-70
2022/06/18 03:59:46;;;;;;;3.50;2.10;;;;;;;;;;4991851;28;20101;-70
2022/06/18 04:02:13;;;;;;;4.53;2.05;;;;;;;;;;4991976;28;20027;-72
2022/06/18 04:04:39;;;;;;;4.93;1.80;;;;;;;;;;4990469;28;20037;-69
2022/06/18 04:07:05;;;;;;;2.25;1.75;;;;;;;;;;4990886;28;20034;-72
2022/06/18 04:09:32;;;;;;;3.33;2.00;;;;;;;;;;4990834;28;20026;-69
2022/06/18 04:11:58;;;;;;;4.35;1.80;;;;;;;;;;4987869;28;20545;-71
2022/06/18 04:14:24;;;;;;;7.20;1.98;;;;;;;;;;4987165;28;20041;-71
2022/06/18 04:16:49;;;;;;;7.05;2.08;;;;;;;;;;4982418;28;20402;-71
2022/06/18 04:19:15;;;;;;;4.20;2.08;;;;;;;;;;4984766;28;20030;-71
2022/06/18 04:21:40;;;;;;;4.47;1.90;;;;;;;;;;4983734;28;20041;-70
2022/06/18 04:24:06;;;;;;;8.43;2.03;;;;;;;;;;4984705;28;20125;-70
2022/06/18 04:26:31;;;;;;;5.40;1.88;;;;;;;;;;4985052;28;20482;-70
2022/06/18 04:28:57;;;;;;;2.78;1.85;;;;;;;;;;4989171;28;20022;-70
2022/06/18 04:31:23;;;;;;;2.60;1.77;;;;;;;;;;4984793;28;20583;-70
2022/06/18 04:33:48;;;;;;;3.05;1.73;;;;;;;;;;4983054;28;20038;-70
2022/06/18 04:36:32;;;;;;;3.83;2.05;;;;;;;;;;4979637;28;20168;-70
2022/06/18 04:38:58;;;;;;;2.83;1.88;;;;;;;;;;4985546;28;20061;-70
2022/06/18 04:41:23;;;;;;;4.60;1.80;;;;;;;;;;4987347;28;20030;-70
2022/06/18 04:43:48;;;;;;;3.78;2.25;;;;;;;;;;4983673;28;20371;-71
2022/06/18 04:46:14;;;;;;;3.85;1.80;;;;;;;;;;4985145;28;20037;-70
2022/06/18 04:48:39;;;;;;;2.35;1.60;;;;;;;;;;4985727;28;20039;-70
2022/06/18 04:51:05;;;;;;;2.67;1.80;;;;;;;;;;4984972;28;20380;-71
2022/06/18 04:53:30;;;;;;;4.53;1.70;;;;;;;;;;4984377;28;20027;-71
2022/06/18 04:55:55;;;;;;;5.05;2.05;;;;;;;;;;4983221;28;20018;-71
2022/06/18 04:58:21;;;;;;;3.42;1.80;;;;;;;;;;4986674;28;20122;-71
2022/06/18 05:00:46;;;;;;;2.38;1.58;;;;;;;;;;4985847;28;20053;-70
2022/06/18 05:03:17;;;;;;;2.47;1.60;;;;;;;;;;4982493;28;20053;-70
2022/06/18 05:05:42;;;;;;;3.20;1.50;;;;;;;;;;4986297;28;20041;-69
2022/06/18 05:08:07;;;;;;;3.08;1.80;;;;;;;;;;4983978;28;20378;-70
2022/06/18 05:10:33;;;;;;;2.13;1.40;;;;;;;;;;4988998;28;20080;-70
2022/06/18 05:12:58;;;;;;;3.67;1.60;;;;;;;;;;4986945;28;20442;-70
2022/06/18 05:15:24;;;;;;;3.72;1.73;;;;;;;;;;4986434;28;20134;-70
2022/06/18 05:17:50;;;;;;;3.83;1.90;;;;;;;;;;4965391;28;20403;-70
2022/06/18 05:20:21;;;;;;;4.18;2.00;;;;;;;;;;4985667;28;20061;-70
2022/06/18 05:22:47;;;;;;;4.90;2.10;;;;;;;;;;4983374;28;20018;-69
2022/06/18 05:25:14;;;;;;;4.85;2.00;;;;;;;;;;4987062;28;20046;-69
2022/06/18 05:27:40;;;;;;;6.57;2.63;;;;;;;;;;4984437;28;20124;-71
2022/06/18 05:30:09;;;;;;;4.30;2.25;;;;;;;;;;4980668;28;20137;-71
2022/06/18 05:32:34;;;;;;;5.57;2.05;;;;;;;;;;4983128;28;20121;-69
2022/06/18 05:35:00;;;;;;;4.63;2.20;;;;;;;;;;4969541;28;20118;-69
2022/06/18 05:37:28;;;;;;;7.50;2.40;;;;;;;;;;4984136;28;20046;-70
2022/06/18 05:39:54;;;;;;;2.92;2.15;;;;;;;;;;4984638;28;20589;-70
2022/06/18 05:42:19;;;;;;;7.05;2.13;;;;;;;;;;4984888;28;20038;-70
2022/06/18 05:44:45;;;;;;;5.82;2.00;;;;;;;;;;4987214;28;20030;-70
2022/06/18 05:47:14;;;;;;;2.40;1.63;;;;;;;;;;4985574;28;20054;-69
2022/06/18 05:49:40;;;;;;;4.82;1.67;;;;;;;;;;4988461;28;20022;-69
2022/06/18 05:52:07;;;;;;;2.25;1.55;;;;;;;;;;4970337;28;20498;-69
2022/06/18 05:54:32;;;;;;;3.40;1.50;;;;;;;;;;4987738;28;20494;-70
2022/06/18 05:56:59;;;;;;;4.80;1.55;;;;;;;;;;4988963;28;20053;-70
2022/06/18 05:59:24;;;;;;;3.97;1.60;;;;;;;;;;4988325;28;20635;-70
2022/06/18 06:01:49;;;;;;;1.60;1.40;;;;;;;;;;4988120;28;20026;-70
2022/06/18 06:04:16;;;;;;;2.72;1.33;;;;;;;;;;4988503;28;20397;-71
2022/06/18 06:06:42;;;;;;;2.13;1.20;;;;;;;;;;4987645;28;20018;-70
2022/06/18 06:09:11;;;;;;;5.47;1.52;;;;;;;;;;4988286;28;20057;-70
2022/06/18 06:11:38;;;;;;;3.10;1.30;;;;;;;;;;4986221;28;20030;-70
2022/06/18 06:14:04;;;;;;;5.35;1.33;;;;;;;;;;4972283;28;20470;-69
2022/06/18 06:16:30;;;;;;;1.98;1.30;;;;;;;;;;4983321;28;20038;-69
2022/06/18 06:18:55;;;;;;;2.80;1.25;;;;;;;;;;4980590;28;20467;-69
2022/06/18 06:21:21;;;;;;;3.15;1.30;;;;;;;;;;4984285;28;20161;-69
2022/06/18 06:23:46;;;;;;;7.97;1.50;;;;;;;;;;4982882;28;20033;-70
2022/06/18 06:26:28;;;;;;;5.00;2.17;;;;;;;;;;4983550;28;20014;-70
2022/06/18 06:28:54;;;;;;;2.17;1.20;;;;;;;;;;4986493;28;20022;-70
2022/06/18 06:31:19;;;;;;;4.95;2.88;;;;;;;;;;4981072;28;20031;-70
2022/06/18 06:33:45;;;;;;;1.98;1.30;;;;;;;;;;4984139;28;20042;-70
2022/06/18 06:36:12;;;;;;;3.17;1.73;;;;;;;;;;4984548;28;20034;-70
2022/06/18 06:38:38;;;;;;;2.72;1.48;;;;;;;;;;4986080;28;20410;-70
2022/06/18 06:41:10;;;;;;;3.90;1.33;;;;;;;;;;4984658;28;20018;-70
2022/06/18 06:43:35;;;;;;;2.65;1.40;;;;;;;;;;4985519;28;20398;-70
2022/06/18 06:46:01;;;;;;;1.40;1.30;;;;;;;;;;4983560;28;20018;-69
2022/06/18 06:48:26;;;;;;;2.25;1.40;;;;;;;;;;4984530;28;20026;-69
2022/06/18 06:50:52;;;;;;;1.35;1.10;;;;;;;;;;4982153;28;20383;-69
2022/06/18 06:53:17;;;;;;;1.73;1.17;;;;;;;;;;4987680;28;20034;-70
2022/06/18 06:58:27;;;;;;;1.10;1.00;;;;;;;;;;5007446;28;20045;-70
2022/06/18 07:00:57;;;;;;;2.78;1.25;;;;;;;;;;5005237;28;20035;-70
2022/06/18 07:03:27;;;;;;;3.25;1.40;;;;;;;;;;5004809;28;20038;-70
2022/06/18 07:05:54;;;;;;;3.95;1.40;;;;;;;;;;5005996;28;20501;-70
2022/06/18 07:08:19;;;;;;;1.80;1.25;;;;;;;;;;5004115;28;20029;-70
2022/06/18 07:10:48;;;;;;;2.08;1.35;;;;;;;;;;5007112;28;20036;-70
2022/06/18 07:13:13;;;;;;;2.85;1.73;;;;;;;;;;5007625;28;20149;-69
2022/06/18 07:15:39;;;;;;;1.33;1.10;;;;;;;;;;5005840;28;20125;-70
2022/06/18 07:18:10;;;;;;;4.43;1.48;;;;;;;;;;4986989;28;20397;-70
2022/06/18 07:20:36;;;;;;;1.23;1.13;;;;;;;;;;5008539;28;20022;-69
2022/06/18 07:23:01;;;;;;;2.65;1.33;;;;;;;;;;5004765;28;20565;-69
2022/06/18 07:25:26;;;;;;;6.15;1.70;;;;;;;;;;5004128;28;20056;-71
2022/06/18 07:27:53;;;;;;;1.90;1.40;;;;;;;;;;5006031;28;20030;-70
2022/06/18 07:30:19;;;;;;;2.67;1.60;;;;;;;;;;5007012;28;20537;-70
2022/06/18 07:32:47;;;;;;;3.47;1.73;;;;;;;;;;5007339;28;20045;-70
2022/06/18 07:35:19;;;;;;;1.92;1.40;;;;;;;;;;5007573;28;20033;-70
2022/06/18 07:37:44;;;;;;;3.47;1.60;;;;;;;;;;5009194;28;20066;-70
2022/06/18 07:40:10;;;;;;;2.00;1.20;;;;;;;;;;5008067;28;20462;-70
2022/06/18 07:42:36;;;;;;;4.53;1.40;;;;;;;;;;5010845;28;20130;-68
2022/06/18 07:45:01;;;;;;;5.22;2.03;;;;;;;;;;5008991;28;20137;-69
2022/06/18 07:47:27;;;;;;;4.18;1.70;;;;;;;;;;5010356;28;20034;-71
2022/06/18 07:49:52;;;;;;;3.85;1.73;;;;;;;;;;5011776;28;20141;-69
2022/06/18 07:52:17;;;;;;;3.67;1.50;;;;;;;;;;5008319;28;20034;-70
2022/06/18 07:54:43;;;;;;;4.07;1.42;;;;;;;;;;5005451;28;20034;-70
2022/06/18 07:57:09;;;;;;;2.45;1.42;;;;;;;;;;5009604;28;20501;-70
2022/06/18 07:59:35;;;;;;;6.25;1.50;;;;;;;;;;5007461;28;20037;-69
2022/06/18 08:02:01;;;;;;;3.85;1.50;;;;;;;;;;5009293;28;20160;-69
2022/06/18 08:04:26;;;;;;;3.10;1.48;;;;;;;;;;5008448;28;20062;-69
2022/06/18 08:06:52;;;;;;;1.60;1.38;;;;;;;;;;4991645;28;20041;-69
2022/06/18 08:09:18;;;;;;;3.00;1.10;;;;;;;;;;5008642;28;20041;-68
2022/06/18 08:11:43;;;;;;;3.33;1.60;;;;;;;;;;5010075;28;20030;-71
2022/06/18 08:14:10;;;;;;;1.25;1.15;;;;;;;;;;5009923;28;20711;-70
2022/06/18 08:16:36;;;;;;;2.15;1.33;;;;;;;;;;5005380;28;20465;-70
2022/06/18 08:19:02;;;;;;;1.92;1.30;;;;;;;;;;5007192;28;20032;-70
2022/06/18 08:21:32;;;;;;;3.35;1.67;;;;;;;;;;4984893;28;20113;-70
2022/06/18 08:24:02;;;;;;;5.47;1.50;;;;;;;;;;5006927;28;21555;-70
2022/06/18 08:26:29;;;;;;;3.85;1.58;;;;;;;;;;5007913;28;20044;-70
2022/06/18 08:28:55;;;;;;;2.92;1.40;;;;;;;;;;5006804;28;20021;-71
2022/06/18 08:31:20;;;;;;;3.47;1.77;;;;;;;;;;5004801;28;20034;-71
2022/06/18 08:33:45;;;;;;;3.45;1.70;;;;;;;;;;5007113;28;20096;-70
2022/06/18 08:36:15;;;;;;;2.88;1.33;;;;;;;;;;5006142;28;20406;-70
2022/06/18 08:38:43;;;;;;;2.53;1.30;;;;;;;;;;5004957;28;20113;-70
2022/06/18 08:41:27;;;;;;;1.80;1.52;;;;;;;;;;5001771;28;20034;-69
2022/06/18 08:44:16;;;;;;;5.25;1.70;;;;;;;;;;5005807;28;20022;-69
2022/06/18 08:47:03;;;;;;;8.93;1.77;;;;;;;;;;5005321;28;20065;-69
2022/06/18 08:49:58;;;;;;;6.13;1.48;;;;;;;;;;5007958;28;20136;-69
2022/06/18 08:52:29;;;;;;;6.38;1.58;;;;;;;;;;4939355;28;20528;-69
2022/06/18 08:55:08;;;;;;;4.15;1.60;;;;;;;;;;5005082;28;20038;-69
2022/06/18 08:57:42;;;;;;;5.30;1.85;;;;;;;;;;5007304;28;20139;-70
2022/06/18 09:00:20;;;;;;;4.32;1.30;;;;;;;;;;5005449;28;20049;-70
2022/06/18 09:03:05;;;;;;;4.13;1.38;;;;;;;;;;5003286;28;20532;-69
2022/06/18 09:06:22;;;;;;;5.68;1.90;;;;;;;;;;5005737;28;20038;-69
2022/06/18 09:09:32;;;;;;;2.03;1.65;;;;;;;;;;4906161;29;20048;-69
2022/06/18 09:12:14;;;;;;;5.88;1.40;;;;;;;;;;4843629;29;20053;-69
2022/06/18 09:15:08;;;;;;;4.93;1.40;;;;;;;;;;4964039;28;20862;-69
2022/06/18 09:17:41;;;;;;;2.92;1.88;;;;;;;;;;4981416;28;20053;-69
2022/06/18 09:20:20;;;;;;;5.60;1.50;;;;;;;;;;4985550;28;20500;-69
2022/06/18 09:22:51;;;;;;;3.80;1.45;;;;;;;;;;4982641;28;20153;-70
2022/06/18 09:25:18;;;;;;;6.80;1.60;;;;;;;;;;4986075;28;20132;-70
2022/06/18 09:27:51;;;;;;;4.30;1.40;;;;;;;;;;4970863;28;20387;-70
2022/06/18 09:30:28;;;;;;;5.43;1.38;;;;;;;;;;4985529;28;20072;-69
2022/06/18 09:33:07;;;;;;;3.47;1.27;;;;;;;;;;4985927;28;20498;-69
2022/06/18 09:36:12;;;;;;;6.50;1.40;;;;;;;;;;4983832;28;20042;-69
2022/06/18 09:38:44;;;;;;;1.92;1.40;;;;;;;;;;4974208;28;20549;-69
2022/06/18 09:41:23;;;;;;;3.50;1.33;;;;;;;;;;4986133;28;20034;-69
2022/06/18 09:44:06;;;;;;;4.50;1.50;;;;;;;;;;4992828;28;20037;-69
2022/06/18 09:46:46;;;;;;;3.42;1.50;;;;;;;;;;5006992;28;20517;-69
2022/06/18 09:49:12;;;;;;;3.20;1.40;;;;;;;;;;5005282;28;20501;-68
2022/06/18 09:52:04;;;;;;;1.60;1.10;;;;;;;;;;5009646;28;20096;-70
2022/06/18 09:54:34;;;;;;;3.55;1.30;;;;;;;;;;5007518;28;20034;-68
2022/06/18 09:57:01;;;;;;;5.95;1.80;;;;;;;;;;5006311;28;20049;-69
2022/06/18 09:59:44;;;;;;;3.90;1.40;;;;;;;;;;5008859;28;20040;-69
2022/06/18 10:02:18;;;;;;;2.45;1.38;;;;;;;;;;5005808;28;20030;-69
2022/06/18 10:07:33;;;;;;;6.53;1.35;;;;;;;;;;5006867;28;20038;-69
2022/06/18 10:10:04;;;;;;;4.53;1.40;;;;;;;;;;5009015;28;20502;-69
2022/06/18 10:12:40;;;;;;;3.00;1.40;;;;;;;;;;5011078;28;20493;-69
2022/06/18 10:15:08;;;;;;;2.30;1.38;;;;;;;;;;5005544;28;20060;-69
2022/06/18 10:17:56;;;;;;;3.80;1.30;;;;;;;;;;5003663;28;20042;-70
2022/06/18 10:20:42;;;;;;;3.60;1.30;;;;;;;;;;5003419;28;20029;-69
2022/06/18 10:23:26;;;;;;;3.50;1.42;;;;;;;;;;5001511;28;20080;-70
2022/06/18 10:25:51;;;;;;;1.95;1.50;;;;;;;;;;5003888;28;20037;-70
2022/06/18 10:28:41;;;;;;;2.92;1.50;;;;;;;;;;5002009;28;20029;-69
2022/06/18 10:31:44;;;;;;;3.92;1.38;;;;;;;;;;5002586;28;20038;-69
2022/06/18 10:34:18;;;;;;;4.47;1.55;;;;;;;;;;4996411;28;20030;-69
2022/06/18 10:36:43;;;;;;;6.70;1.42;;;;;;;;;;5002379;28;20530;-69
2022/06/18 10:39:29;;;;;;;1.83;1.70;;;;;;;;;;5002750;28;20247;-69
2022/06/18 10:41:55;;;;;;;4.35;1.58;;;;;;;;;;5002663;28;20447;-69
2022/06/18 10:44:29;;;;;;;3.20;1.10;;;;;;;;;;5005716;28;20026;-70
2022/06/18 10:47:04;;;;;;;4.35;1.77;;;;;;;;;;5003449;28;20689;-70
2022/06/18 10:49:31;;;;;;;1.73;1.20;;;;;;;;;;5001968;28;20041;-70
2022/06/18 10:51:57;;;;;;;4.28;1.40;;;;;;;;;;5003521;28;20033;-69
2022/06/18 10:54:36;;;;;;;4.55;1.90;;;;;;;;;;5004560;28;20394;-69
2022/06/18 10:57:04;;;;;;;5.93;1.90;;;;;;;;;;5003700;28;20033;-69
2022/06/18 10:59:35;;;;;;;5.28;2.40;;;;;;;;;;5004399;28;20652;-69
2022/06/18 11:02:12;;;;;;;;;;;;;;;;;;5000672;28;20489;-69
2022/06/18 11:04:39;;;;;;;6.43;1.80;;;;;;;;;;4999618;28;19921;-68
2022/06/18 11:07:08;;;;;;;6.57;2.17;;;;;;;;;;5002688;28;20027;-69
2022/06/18 11:09:39;;;;;;;3.45;1.50;;;;;;;;;;5003053;28;20026;-69
2022/06/18 11:12:19;;;;;;;7.20;1.95;;;;;;;;;;5010161;28;20679;-69
2022/06/18 11:14:45;;;;;;;5.45;2.08;;;;;;;;;;5004735;28;20060;-69
2022/06/18 11:17:25;;;;;;;3.03;1.50;;;;;;;;;;5003246;28;20465;-70
2022/06/18 11:19:51;;;;;;;5.60;1.73;;;;;;;;;;5003031;28;20029;-69
2022/06/18 11:22:26;;;;;;;4.55;1.52;;;;;;;;;;5003643;28;20030;-69
2022/06/18 11:24:58;;;;;;;6.60;2.08;;;;;;;;;;5005536;28;20122;-69
2022/06/18 11:27:29;;;;;;;4.40;1.50;;;;;;;;;;5004651;28;20056;-69
2022/06/18 11:29:55;;;;;;;6.10;1.80;;;;;;;;;;5003081;28;20042;-69
2022/06/18 11:32:35;;;;;;;4.45;1.75;;;;;;;;;;5002751;28;20033;-69
2022/06/18 11:35:19;;;;;;;8.20;1.77;;;;;;;;;;5003071;28;20734;-69
2022/06/18 11:37:56;;;;;;;2.65;1.60;;;;;;;;;;5003173;28;20033;-69
2022/06/18 11:40:22;;;;;;;5.18;2.10;;;;;;;;;;5005730;28;20497;-69
2022/06/18 11:43:07;;;;;;;5.82;2.40;;;;;;;;;;5007830;28;20124;-69
2022/06/18 11:45:39;;;;;;;6.10;2.40;;;;;;;;;;5008408;28;20137;-69
2022/06/18 11:48:14;;;;;;;18.65;2.72;;;;;;;;;;5010291;28;20507;-70
2022/06/18 11:51:09;;;;;;;6.20;2.05;;;;;;;;;;5004510;28;20037;-70
2022/06/18 11:53:40;;;;;;;6.53;2.13;;;;;;;;;;5007009;28;20037;-69
2022/06/18 11:56:17;;;;;;;5.03;2.13;;;;;;;;;;5017483;28;20387;-70
2022/06/18 11:58:54;;;;;;;9.85;2.28;;;;;;;;;;5010325;28;20363;-69
2022/06/18 12:01:31;;;;;;;7.30;2.00;;;;;;;;;;5009828;28;20067;-69
2022/06/18 12:04:09;;;;;;;5.97;2.40;;;;;;;;;;5011987;28;20038;-69
2022/06/18 12:06:44;;;;;;;9.82;2.20;;;;;;;;;;4993189;28;20124;-69
2022/06/18 12:09:12;;;;;;;6.95;2.13;;;;;;;;;;5003475;28;20524;-69
2022/06/18 12:12:03;;;;;;;6.28;1.92;;;;;;;;;;5008281;28;20042;-69
2022/06/18 12:14:42;;;;;;;7.32;2.13;;;;;;;;;;5008656;28;20033;-68
2022/06/18 12:17:17;;;;;;;8.50;2.35;;;;;;;;;;5011185;28;20053;-68
2022/06/18 12:19:45;;;;;;;5.43;1.92;;;;;;;;;;5012501;28;20532;-68
2022/06/18 12:22:22;;;;;;;12.05;2.10;;;;;;;;;;5009764;28;20159;-70
2022/06/18 12:25:00;;;;;;;6.57;2.30;;;;;;;;;;5007271;28;20026;-70
2022/06/18 12:27:29;;;;;;;6.97;2.45;;;;;;;;;;5008768;28;20037;-68
2022/06/18 12:30:04;;;;;;;9.50;2.22;;;;;;;;;;5011045;28;20524;-69
2022/06/18 12:32:35;;;;;;;8.13;2.38;;;;;;;;;;5004918;28;20044;-70
2022/06/18 12:35:11;;;;;;;10.38;2.28;;;;;;;;;;5003941;28;20026;-68
2022/06/18 12:38:02;;;;;;;6.13;2.22;;;;;;;;;;5008003;28;20498;-70
2022/06/18 12:40:33;;;;;;;10.05;2.47;;;;;;;;;;5011264;28;20044;-68
2022/06/18 12:43:08;;;;;;;7.15;2.25;;;;;;;;;;5006480;28;20042;-68
2022/06/18 12:45:59;;;;;;;8.68;2.45;;;;;;;;;;5007905;28;20124;-67
2022/06/18 12:48:46;;;;;;;12.10;2.43;;;;;;;;;;5006183;28;20085;-69
2022/06/18 12:51:28;;;;;;;9.43;2.58;;;;;;;;;;5005835;28;20649;-70
2022/06/18 12:54:31;;;;;;;7.60;2.08;;;;;;;;;;5008118;28;20041;-70
2022/06/18 12:57:21;;;;;;;9.85;2.58;;;;;;;;;;5010597;28;20066;-71
2022/06/18 12:59:58;;;;;;;10.52;2.35;;;;;;;;;;5007568;28;20568;-69
2022/06/18 13:02:48;;;;;;;13.80;2.40;;;;;;;;;;5007637;28;20037;-69
2022/06/18 13:05:19;;;;;;;9.85;2.17;;;;;;;;;;5005938;28;20061;-70
2022/06/18 13:07:50;;;;;;;6.30;2.15;;;;;;;;;;5008676;28;20839;-68
2022/06/18 13:10:36;;;;;;;13.93;2.78;;;;;;;;;;5011274;28;20034;-68
2022/06/18 13:13:32;;;;;;;8.55;2.47;;;;;;;;;;5006465;28;20029;-68
2022/06/18 13:16:04;;;;;;;13.75;3.00;;;;;;;;;;5006886;28;20083;-68
2022/06/18 13:18:43;;;;;;;10.60;2.60;;;;;;;;;;5008994;28;20030;-68
2022/06/18 13:21:10;;;;;;;9.85;2.72;;;;;;;;;;5009666;28;20375;-68
2022/06/18 13:29:51;;;;;;;10.07;2.28;;;;;;;;;;5003336;28;20127;-68
2022/06/18 13:32:38;;;;;;;13.15;2.85;;;;;;;;;;5002670;28;20052;-68
2022/06/18 13:35:28;;;;;;;18.00;2.83;;;;;;;;;;5004506;28;20022;-69
2022/06/18 13:38:18;;;;;;;12.77;2.83;;;;;;;;;;5002256;28;20525;-68
2022/06/18 13:40:55;;;;;;;10.40;3.10;;;;;;;;;;5003597;28;20057;-69
2022/06/18 13:43:31;;;;;;;11.48;2.42;;;;;;;;;;5004328;28;20495;-69
2022/06/18 13:46:01;;;;;;;12.80;2.40;;;;;;;;;;5007697;28;20482;-68
2022/06/18 13:48:33;;;;;;;10.48;2.63;;;;;;;;;;5011310;28;20038;-68
2022/06/18 13:50:59;;;;;;;12.55;2.58;;;;;;;;;;5004289;28;20516;-69
2022/06/18 13:53:31;;;;;;;11.75;2.67;;;;;;;;;;5011249;28;20038;-69
2022/06/18 13:55:57;;;;;;;6.28;2.40;;;;;;;;;;5006202;28;20087;-69
2022/06/18 13:58:27;;;;;;;8.73;2.92;;;;;;;;;;5003705;28;20526;-69
2022/06/18 14:01:13;;;;;;;7.95;2.40;;;;;;;;;;4982962;28;20034;-68
2022/06/18 14:03:48;;;;;;;10.95;2.90;;;;;;;;;;5007498;28;20479;-68
2022/06/18 14:06:16;;;;;;;13.88;2.55;;;;;;;;;;5017565;28;20438;-68
2022/06/18 14:08:47;;;;;;;13.40;2.75;;;;;;;;;;4998254;28;20491;-69
2022/06/18 14:11:31;;;;;;;7.68;2.22;;;;;;;;;;5006714;28;20033;-68
2022/06/18 14:13:57;;;;;;;16.35;2.60;;;;;;;;;;5007086;28;20374;-69
2022/06/18 14:17:02;;;;;;;8.32;2.40;;;;;;;;;;5006457;28;20026;-68
2022/06/18 14:19:35;;;;;;;9.02;2.83;;;;;;;;;;5003026;28;20486;-69
2022/06/18 14:22:16;;;;;;;11.80;2.67;;;;;;;;;;5001741;28;20041;-68
2022/06/18 14:24:43;;;;;;;8.33;2.30;;;;;;;;;;5002506;28;20498;-74
2022/06/18 14:27:28;;;;;;;12.50;3.10;;;;;;;;;;5006264;28;20041;-70
2022/06/18 14:29:55;;;;;;;12.73;3.40;;;;;;;;;;5006777;28;20034;-69
2022/06/18 14:32:35;;;;;;;10.23;3.22;;;;;;;;;;4998485;28;20478;-69
2022/06/18 14:35:29;;;;;;;13.20;3.03;;;;;;;;;;5005065;28;20128;-72
2022/06/18 14:37:55;;;;;;;19.85;3.17;;;;;;;;;;5002814;28;20033;-69
2022/06/18 14:41:34;;;;;;;13.80;3.03;;;;;;;;;;5009828;28;20022;-69
2022/06/18 14:43:34;;;;;;;11.00;2.65;;;;;;;;;;5007861;28;20033;-68
2022/06/18 14:46:43;;;;;;;11.20;2.60;;;;;;;;;;5006134;28;20038;-70
2022/06/18 14:49:15;;;;;;;10.32;2.70;;;;;;;;;;4990992;28;20120;-69
2022/06/18 14:52:05;;;;;;;8.32;2.88;;;;;;;;;;5002178;28;20061;-69
2022/06/18 14:54:41;;;;;;;10.48;3.10;;;;;;;;;;5004086;28;20481;-69
2022/06/18 14:57:21;;;;;;;11.88;3.30;;;;;;;;;;5005200;28;20506;-69
2022/06/18 14:59:55;;;;;;;16.15;3.58;;;;;;;;;;4998558;28;20113;-69
2022/06/18 15:02:30;;;;;;;7.55;2.53;;;;;;;;;;5007667;28;20034;-69
2022/06/18 15:04:57;;;;;;;9.85;2.80;;;;;;;;;;5005259;28;20100;-69
2022/06/18 15:07:35;;;;;;;10.38;3.00;;;;;;;;;;5008742;28;20488;-69
2022/06/18 15:10:06;;;;;;;8.50;2.92;;;;;;;;;;5009999;28;20061;-68
2022/06/18 15:12:34;;;;;;;6.38;2.53;;;;;;;;;;5005282;28;20026;-69
2022/06/18 15:15:02;;;;;;;12.65;2.85;;;;;;;;;;5006313;28;20386;-69
2022/06/18 15:17:32;;;;;;;12.43;3.00;;;;;;;;;;5008412;28;20132;-69
2022/06/18 15:23:02;;;;;;;9.35;2.78;;;;;;;;;;4981260;28;20128;-69
2022/06/18 15:25:40;;;;;;;8.98;3.42;;;;;;;;;;5011729;28;20044;-69
2022/06/18 15:28:08;;;;;;;8.52;3.08;;;;;;;;;;5011994;28;20125;-69
2022/06/18 15:30:40;;;;;;;15.55;2.95;;;;;;;;;;4990047;28;20034;-69